createdAt,value
2023-03-05T00:01:42.571Z,1.10
2023-03-05T00:04:15.389Z,0.75
2023-03-05T00:06:43.943Z,1.10
2023-03-05T00:09:12.665Z,1.05
2023-03-05T00:11:41.413Z,1.40
2023-03-05T00:14:12.574Z,0.95
2023-03-05T00:16:41.777Z,0.98
2023-03-05T00:19:11.953Z,1.10
2023-03-05T00:21:41.855Z,1.20
2023-03-05T00:24:14.061Z,1.10
2023-03-05T00:26:43.086Z,0.90
2023-03-05T00:29:15.644Z,1.30
2023-03-05T00:31:47.525Z,0.98
2023-03-05T00:34:19.285Z,1.00
2023-03-05T00:36:50.388Z,0.80
2023-03-05T00:39:20.577Z,2.45
2023-03-05T00:41:49.685Z,1.05
2023-03-05T00:44:20.116Z,1.15
2023-03-05T00:46:51.962Z,0.80
2023-03-05T00:49:21.263Z,1.20
2023-03-05T00:51:50.341Z,1.33
2023-03-05T00:54:19.598Z,0.70
2023-03-05T00:56:49.235Z,0.77
2023-03-05T00:59:19.367Z,0.68
2023-03-05T01:01:47.970Z,1.00
2023-03-05T01:04:16.580Z,1.17
2023-03-05T01:06:46.332Z,1.00
2023-03-05T01:09:15.659Z,0.73
2023-03-05T01:11:44.322Z,1.10
2023-03-05T01:14:13.081Z,0.77
2023-03-05T01:16:43.227Z,1.30
2023-03-05T01:19:13.001Z,1.00
2023-03-05T01:21:41.820Z,1.10
2023-03-05T01:24:10.652Z,0.80
2023-03-05T01:26:39.356Z,1.60
2023-03-05T01:29:07.951Z,0.80
2023-03-05T01:31:36.546Z,0.80
2023-03-05T01:34:07.685Z,0.70
2023-03-05T01:36:36.605Z,0.75
2023-03-05T01:39:05.465Z,1.08
2023-03-05T01:41:34.990Z,0.75
2023-03-05T01:44:03.913Z,0.80
2023-03-05T01:46:35.825Z,0.77
2023-03-05T01:49:20.728Z,0.70
2023-03-05T01:52:02.222Z,0.70
2023-03-05T01:54:34.812Z,0.52
2023-03-05T01:57:09.698Z,0.95
2023-03-05T01:59:41.093Z,0.85
2023-03-05T02:02:10.174Z,0.95
2023-03-05T02:04:45.089Z,0.98
2023-03-05T02:07:15.068Z,1.10
2023-03-05T02:09:44.289Z,0.70
2023-03-05T02:12:14.273Z,0.80
2023-03-05T02:14:46.356Z,0.68
2023-03-05T02:17:15.946Z,0.70
2023-03-05T02:19:51.587Z,1.00
2023-03-05T02:22:24.460Z,0.90
2023-03-05T02:24:53.966Z,0.60
2023-03-05T02:27:27.305Z,0.60
2023-03-05T02:29:56.153Z,0.77
2023-03-05T02:32:24.743Z,0.73
2023-03-05T02:34:53.955Z,0.65
2023-03-05T02:37:24.434Z,0.90
2023-03-05T02:39:53.539Z,0.77
2023-03-05T02:42:22.660Z,0.80
2023-03-05T02:44:51.407Z,0.88
2023-03-05T02:47:20.229Z,0.77
2023-03-05T02:49:48.901Z,0.80
2023-03-05T02:52:17.566Z,1.00
2023-03-05T02:54:47.733Z,0.85
2023-03-05T02:57:16.463Z,0.80
2023-03-05T02:59:45.046Z,0.90
2023-03-05T03:02:14.112Z,0.70
2023-03-05T03:04:42.836Z,0.80
2023-03-05T03:07:11.941Z,0.75
2023-03-05T03:09:40.962Z,0.65
2023-03-05T03:12:11.922Z,0.60
2023-03-05T03:14:43.040Z,0.70
2023-03-05T03:17:13.371Z,1.10
2023-03-05T03:19:42.319Z,0.70
2023-03-05T03:22:12.442Z,0.70
2023-03-05T03:24:43.412Z,0.60
2023-03-05T03:27:13.465Z,0.65
2023-03-05T03:29:42.141Z,0.80
2023-03-05T03:32:10.792Z,0.70
2023-03-05T03:34:39.414Z,0.80
2023-03-05T03:37:08.611Z,0.90
2023-03-05T03:39:37.278Z,0.70
2023-03-05T03:42:06.436Z,0.60
2023-03-05T03:44:36.574Z,1.10
2023-03-05T03:47:05.401Z,0.90
2023-03-05T03:49:33.922Z,1.00
2023-03-05T03:52:02.530Z,0.85
2023-03-05T03:54:32.090Z,0.98
2023-03-05T03:57:00.647Z,0.98
2023-03-05T03:59:29.950Z,0.98
2023-03-05T04:02:00.022Z,0.88
2023-03-05T04:04:30.318Z,0.85
2023-03-05T04:06:58.891Z,0.70
2023-03-05T04:09:27.529Z,0.85
2023-03-05T04:11:56.494Z,0.82
2023-03-05T04:14:26.693Z,0.80
2023-03-05T04:16:55.306Z,0.88
2023-03-05T04:19:25.387Z,0.90
2023-03-05T04:21:53.963Z,0.68
2023-03-05T04:24:22.494Z,0.88
2023-03-05T04:26:51.126Z,0.85
2023-03-05T04:29:20.042Z,0.70
2023-03-05T04:31:48.611Z,0.73
2023-03-05T04:34:17.399Z,0.80
2023-03-05T04:36:47.497Z,0.60
2023-03-05T04:39:16.903Z,0.73
2023-03-05T04:41:45.527Z,0.73
2023-03-05T04:44:14.027Z,0.55
2023-03-05T04:46:42.855Z,0.82
2023-03-05T04:49:11.364Z,0.73
2023-03-05T04:51:39.839Z,0.93
2023-03-05T04:54:10.158Z,0.68
2023-03-05T04:56:38.756Z,0.77
2023-03-05T04:59:07.391Z,0.85
2023-03-05T05:01:36.172Z,0.75
2023-03-05T05:04:04.943Z,0.80
2023-03-05T05:06:34.798Z,0.80
2023-03-05T05:09:03.965Z,0.70
2023-03-05T05:11:34.230Z,0.80
2023-03-05T05:14:03.644Z,0.82
2023-03-05T05:16:32.225Z,0.70
2023-03-05T05:19:00.883Z,0.80
2023-03-05T05:21:29.563Z,0.73
2023-03-05T05:23:58.109Z,1.05
2023-03-05T05:26:26.702Z,0.50
2023-03-05T05:28:56.799Z,0.80
2023-03-05T05:31:25.532Z,0.70
2023-03-05T05:33:54.481Z,0.90
2023-03-05T05:36:23.372Z,0.70
2023-03-05T05:38:52.142Z,1.27
2023-03-05T05:41:21.590Z,0.70
2023-03-05T05:43:51.272Z,0.70
2023-03-05T05:46:22.282Z,0.70
2023-03-05T05:48:50.904Z,0.90
2023-03-05T05:51:22.444Z,0.85
2023-03-05T05:53:51.653Z,0.80
2023-03-05T05:56:20.882Z,0.60
2023-03-05T05:58:50.192Z,0.80
2023-03-05T06:01:23.388Z,0.73
2023-03-05T06:03:52.304Z,0.65
2023-03-05T06:06:22.626Z,0.80
2023-03-05T06:08:51.997Z,0.80
2023-03-05T06:11:21.053Z,0.93
2023-03-05T06:13:50.476Z,1.00
2023-03-05T06:16:24.017Z,0.73
2023-03-05T06:18:53.188Z,0.52
2023-03-05T06:21:23.365Z,0.75
2023-03-05T06:23:52.475Z,0.95
2023-03-05T06:26:23.541Z,1.15
2023-03-05T06:28:52.518Z,1.00
2023-03-05T06:31:25.816Z,0.60
2023-03-05T06:33:55.509Z,0.70
2023-03-05T06:36:25.373Z,0.60
2023-03-05T06:38:54.674Z,1.10
2023-03-05T06:41:25.149Z,0.65
2023-03-05T06:43:57.350Z,1.02
2023-03-05T06:46:28.772Z,1.13
2023-03-05T06:48:58.589Z,0.98
2023-03-05T06:51:29.428Z,0.80
2023-03-05T06:54:01.794Z,1.48
2023-03-05T06:56:30.348Z,1.00
2023-03-05T06:58:59.277Z,0.80
2023-03-05T07:01:29.348Z,1.10
2023-03-05T07:04:00.495Z,0.77
2023-03-05T07:06:29.876Z,0.70
2023-03-05T07:08:59.308Z,0.70
2023-03-05T07:11:28.383Z,1.10
2023-03-05T07:13:57.400Z,1.00
2023-03-05T07:16:29.034Z,1.13
2023-03-05T07:18:59.473Z,0.80
2023-03-05T07:21:29.900Z,0.73
2023-03-05T07:24:00.355Z,1.00
2023-03-05T07:26:30.998Z,0.90
2023-03-05T07:28:59.700Z,0.68
2023-03-05T07:31:31.920Z,0.68
2023-03-05T07:34:01.971Z,1.45
2023-03-05T07:36:31.411Z,1.15
2023-03-05T07:39:00.149Z,0.90
2023-03-05T07:41:28.703Z,0.98
2023-03-05T07:43:57.454Z,0.73
2023-03-05T07:46:32.019Z,0.63
2023-03-05T07:49:00.798Z,0.90
2023-03-05T07:51:29.658Z,1.08
2023-03-05T07:53:59.985Z,1.20
2023-03-05T07:56:32.089Z,1.30
2023-03-05T07:59:01.404Z,2.00
2023-03-05T08:01:32.345Z,0.88
2023-03-05T08:04:01.223Z,1.00
2023-03-05T08:06:30.271Z,0.90
2023-03-05T08:09:00.110Z,1.00
2023-03-05T08:11:29.838Z,1.27
2023-03-05T08:13:59.705Z,0.95
2023-03-05T08:16:28.515Z,0.85
2023-03-05T08:18:59.985Z,1.23
2023-03-05T08:21:31.182Z,1.30
2023-03-05T08:24:00.808Z,1.38
2023-03-05T08:26:30.998Z,1.35
2023-03-05T08:28:59.918Z,1.48
2023-03-05T08:31:30.337Z,1.73
2023-03-05T08:34:02.103Z,1.00
2023-03-05T08:36:31.316Z,1.17
2023-03-05T08:39:00.497Z,1.40
2023-03-05T08:41:29.315Z,1.20
2023-03-05T08:43:57.836Z,1.27
2023-03-05T08:46:26.996Z,1.40
2023-03-05T08:48:55.606Z,1.23
2023-03-05T08:51:27.154Z,1.02
2023-03-05T08:53:57.353Z,1.00
2023-03-05T08:56:28.483Z,0.85
2023-03-05T08:58:57.435Z,1.33
2023-03-05T09:01:26.304Z,1.35
2023-03-05T09:03:54.981Z,1.23
2023-03-05T09:06:25.224Z,1.08
2023-03-05T09:08:54.329Z,0.98
2023-03-05T09:11:23.320Z,1.10
2023-03-05T09:13:52.022Z,0.93
2023-03-05T09:16:21.155Z,1.48
2023-03-05T09:18:50.057Z,1.00
2023-03-05T09:21:19.290Z,1.13
2023-03-05T09:23:49.368Z,1.75
2023-03-05T09:26:20.244Z,1.45
2023-03-05T09:28:49.385Z,0.77
2023-03-05T09:31:18.143Z,1.00
2023-03-05T09:33:48.359Z,0.80
2023-03-05T09:36:21.867Z,1.08
2023-03-05T09:38:52.108Z,0.77
2023-03-05T09:41:30.375Z,0.95
2023-03-05T09:44:11.130Z,1.50
2023-03-05T09:46:48.470Z,1.60
2023-03-05T09:49:22.283Z,1.40
2023-03-05T09:51:55.978Z,1.05
2023-03-05T09:54:41.120Z,0.90
2023-03-05T09:57:17.386Z,1.00
2023-03-05T09:59:51.666Z,1.30
2023-03-05T10:02:24.451Z,1.17
2023-03-05T10:04:59.101Z,1.02
2023-03-05T10:07:31.535Z,1.25
2023-03-05T10:10:03.677Z,0.90
2023-03-05T10:12:42.682Z,1.08
2023-03-05T10:15:14.853Z,0.80
2023-03-05T10:18:08.130Z,1.00
2023-03-05T10:20:53.839Z,1.08
2023-03-05T10:23:35.024Z,0.90
2023-03-05T10:26:15.042Z,1.33
2023-03-05T10:28:56.305Z,1.10
2023-03-05T10:31:42.123Z,1.92
2023-03-05T10:34:34.136Z,1.70
2023-03-05T10:37:35.123Z,3.33
2023-03-05T10:40:12.995Z,2.50
2023-03-05T10:42:50.157Z,2.85
2023-03-05T10:45:21.543Z,2.60
2023-03-05T10:47:53.757Z,2.53
2023-03-05T10:50:24.949Z,2.55
2023-03-05T10:53:07.366Z,2.78
2023-03-05T10:55:35.902Z,2.10
2023-03-05T10:58:13.046Z,2.13
2023-03-05T11:00:58.674Z,1.75
2023-03-05T11:03:27.585Z,2.20
2023-03-05T11:06:03.181Z,1.92
2023-03-05T11:08:33.708Z,2.30
2023-03-05T11:11:17.861Z,2.97
2023-03-05T11:13:57.129Z,2.22
2023-03-05T11:16:27.958Z,2.50
2023-03-05T11:19:18.868Z,3.00
2023-03-05T11:21:48.828Z,2.60
2023-03-05T11:24:19.468Z,2.75
2023-03-05T11:26:49.961Z,1.90
2023-03-05T11:29:23.617Z,2.47
2023-03-05T11:31:53.430Z,2.08
2023-03-05T11:34:31.606Z,1.83
2023-03-05T11:37:06.135Z,2.60
2023-03-05T11:39:38.454Z,2.63
2023-03-05T11:42:13.438Z,2.28
2023-03-05T11:44:48.828Z,2.30
2023-03-05T11:47:31.321Z,2.42
2023-03-05T11:50:11.844Z,1.95
2023-03-05T11:52:46.272Z,2.20
2023-03-05T11:55:19.016Z,1.77
2023-03-05T11:57:58.661Z,2.22
2023-03-05T12:00:30.982Z,2.20
2023-03-05T12:03:03.680Z,1.88
2023-03-05T12:05:33.436Z,2.60
2023-03-05T12:08:05.896Z,2.75
2023-03-05T12:10:34.410Z,2.30
2023-03-05T12:13:11.297Z,2.10
2023-03-05T12:15:51.350Z,2.30
2023-03-05T12:18:27.457Z,2.05
2023-03-05T12:21:06.140Z,2.33
2023-03-05T12:23:48.697Z,2.28
2023-03-05T12:26:17.676Z,2.33
2023-03-05T12:28:59.716Z,2.20
2023-03-05T12:31:40.017Z,2.90
2023-03-05T12:34:51.754Z,1.90
2023-03-05T12:37:57.419Z,2.15
2023-03-05T12:40:27.488Z,1.83
2023-03-05T12:43:00.741Z,1.92
2023-03-05T12:45:37.884Z,2.28
2023-03-05T12:48:45.936Z,1.92
2023-03-05T12:51:16.723Z,2.67
2023-03-05T12:53:45.518Z,2.05
2023-03-05T12:56:21.887Z,2.10
2023-03-05T12:58:54.018Z,2.17
2023-03-05T13:01:35.521Z,2.05
2023-03-05T13:04:11.220Z,2.08
2023-03-05T13:06:40.890Z,2.05
2023-03-05T13:09:18.629Z,2.40
2023-03-05T13:11:49.717Z,1.75
2023-03-05T13:14:31.969Z,1.88
2023-03-05T13:17:01.106Z,2.70
2023-03-05T13:19:35.515Z,2.15
2023-03-05T13:22:12.063Z,1.83
2023-03-05T13:24:40.861Z,2.05
2023-03-05T13:27:22.322Z,2.10
2023-03-05T13:29:55.314Z,1.90
2023-03-05T13:32:28.261Z,1.60
2023-03-05T13:35:01.508Z,1.83
2023-03-05T13:37:33.607Z,1.50
2023-03-05T13:40:07.502Z,2.13
2023-03-05T13:42:38.999Z,1.85
2023-03-05T13:45:22.715Z,1.88
2023-03-05T13:47:56.014Z,1.63
2023-03-05T13:50:28.935Z,1.85
2023-03-05T13:52:59.453Z,1.80
2023-03-05T13:55:28.492Z,2.15
2023-03-05T13:57:57.433Z,1.75
2023-03-05T14:00:36.912Z,1.75
2023-03-05T14:03:13.394Z,1.70
2023-03-05T14:05:46.813Z,1.95
2023-03-05T14:08:21.603Z,1.85
2023-03-05T14:10:51.519Z,2.20
2023-03-05T14:13:23.720Z,1.73
2023-03-05T14:16:06.044Z,2.15
2023-03-05T14:18:35.357Z,1.95
2023-03-05T14:21:09.023Z,1.63
2023-03-05T14:23:43.210Z,2.03
2023-03-05T14:26:33.179Z,1.70
2023-03-05T14:29:03.906Z,1.60
2023-03-05T14:31:36.985Z,1.90
2023-03-05T14:34:08.469Z,1.35
2023-03-05T14:36:39.150Z,1.92
2023-03-05T14:39:08.716Z,1.67
2023-03-05T14:41:40.329Z,1.80
2023-03-05T14:44:14.607Z,1.63
2023-03-05T14:46:43.442Z,2.17
2023-03-05T14:49:12.216Z,1.73
2023-03-05T14:51:44.858Z,2.03
2023-03-05T14:54:22.791Z,1.90
2023-03-05T14:56:51.453Z,2.80
2023-03-05T14:59:21.908Z,2.60
2023-03-05T15:01:51.952Z,2.38
2023-03-05T15:04:20.778Z,2.10
2023-03-05T15:06:53.418Z,2.40
2023-03-05T15:09:23.162Z,2.67
2023-03-05T15:11:52.310Z,2.30
2023-03-05T15:14:20.977Z,2.08
2023-03-05T15:16:49.691Z,2.30
2023-03-05T15:19:19.270Z,2.90
2023-03-05T15:21:48.085Z,2.45
2023-03-05T15:24:18.034Z,2.03
2023-03-05T15:26:48.638Z,2.20
2023-03-05T15:29:18.670Z,2.20
2023-03-05T15:31:47.516Z,2.50
2023-03-05T15:34:16.364Z,2.08
2023-03-05T15:36:45.189Z,2.03
2023-03-05T15:39:13.696Z,1.85
2023-03-05T15:41:44.796Z,2.22
2023-03-05T15:44:13.241Z,1.98
2023-03-05T15:46:42.893Z,2.20
2023-03-05T15:49:11.516Z,2.00
2023-03-05T15:51:40.626Z,2.03
2023-03-05T15:54:09.516Z,2.10
2023-03-05T15:56:38.300Z,1.85
2023-03-05T15:59:10.094Z,1.52
2023-03-05T16:01:39.031Z,1.80
2023-03-05T16:04:08.159Z,1.80
2023-03-05T16:06:36.768Z,1.98
2023-03-05T16:09:06.671Z,2.70
2023-03-05T16:11:39.588Z,2.58
2023-03-05T16:14:11.434Z,2.50
2023-03-05T16:16:40.808Z,1.60
2023-03-05T16:19:11.323Z,1.90
2023-03-05T16:21:40.611Z,1.65
2023-03-05T16:24:09.638Z,1.98
2023-03-05T16:26:40.882Z,2.10
2023-03-05T16:29:11.120Z,1.70
2023-03-05T16:31:41.666Z,1.90
2023-03-05T16:34:10.883Z,2.35
2023-03-05T16:36:39.656Z,1.60
2023-03-05T16:39:08.395Z,1.85
2023-03-05T16:41:37.360Z,2.15
2023-03-05T16:44:07.650Z,1.70
2023-03-05T16:46:38.662Z,1.90
2023-03-05T16:49:08.610Z,1.85
2023-03-05T16:51:37.608Z,1.70
2023-03-05T16:54:07.422Z,1.58
2023-03-05T16:56:37.770Z,2.15
2023-03-05T16:59:06.366Z,2.05
2023-03-05T17:01:35.271Z,1.55
2023-03-05T17:04:05.824Z,1.60
2023-03-05T17:06:34.955Z,1.60
2023-03-05T17:09:04.257Z,1.60
2023-03-05T17:11:36.041Z,1.95
2023-03-05T17:14:05.095Z,2.13
2023-03-05T17:16:33.672Z,1.58
2023-03-05T17:19:04.650Z,1.98
2023-03-05T17:21:33.303Z,1.60
2023-03-05T17:24:03.051Z,2.00
2023-03-05T17:26:32.854Z,1.90
2023-03-05T17:29:01.735Z,1.83
2023-03-05T17:31:30.305Z,1.88
2023-03-05T17:33:59.142Z,2.00
2023-03-05T17:36:29.394Z,1.60
2023-03-05T17:38:58.343Z,1.45
2023-03-05T17:41:26.952Z,2.10
2023-03-05T17:43:55.742Z,1.60
2023-03-05T17:46:24.408Z,1.95
2023-03-05T17:48:53.049Z,1.35
2023-03-05T17:51:21.679Z,1.75
2023-03-05T17:53:51.511Z,1.67
2023-03-05T17:56:22.231Z,1.67
2023-03-05T17:58:50.973Z,1.73
2023-03-05T18:01:27.355Z,1.83
2023-03-05T18:03:56.449Z,1.40
2023-03-05T18:06:26.159Z,1.30
2023-03-05T18:08:56.088Z,1.50
2023-03-05T18:11:25.277Z,1.25
2023-03-05T18:13:54.064Z,1.40
2023-03-05T18:16:25.389Z,1.92
2023-03-05T18:18:54.312Z,1.30
2023-03-05T18:21:28.136Z,1.50
2023-03-05T18:23:58.128Z,1.73
2023-03-05T18:26:26.849Z,2.10
2023-03-05T18:28:55.513Z,1.83
2023-03-05T18:31:24.210Z,1.63
2023-03-05T18:33:53.077Z,1.70
2023-03-05T18:36:21.771Z,1.90
2023-03-05T18:38:50.782Z,1.75
2023-03-05T18:41:23.017Z,1.90
2023-03-05T18:43:53.792Z,2.30
2023-03-05T18:46:22.849Z,1.67
2023-03-05T18:48:51.931Z,2.50
2023-03-05T18:51:22.423Z,1.85
2023-03-05T18:53:52.001Z,2.03
2023-03-05T18:56:22.593Z,1.35
2023-03-05T18:58:51.687Z,2.30
2023-03-05T19:01:21.036Z,2.03
2023-03-05T19:03:50.445Z,1.70
2023-03-05T19:06:19.617Z,2.17
2023-03-05T19:08:50.798Z,2.40
2023-03-05T19:11:22.401Z,1.65
2023-03-05T19:13:51.768Z,5.38
2023-03-05T19:16:22.371Z,1.60
2023-03-05T19:18:59.860Z,2.50
2023-03-05T19:21:30.066Z,1.50
2023-03-05T19:23:59.240Z,2.30
2023-03-05T19:26:29.459Z,2.03
2023-03-05T19:28:59.337Z,2.55
2023-03-05T19:31:27.906Z,1.75
2023-03-05T19:33:57.229Z,2.05
2023-03-05T19:36:26.387Z,1.88
2023-03-05T19:38:55.071Z,1.90
2023-03-05T19:41:24.142Z,2.15
2023-03-05T19:43:54.615Z,1.75
2023-03-05T19:46:23.424Z,2.30
2023-03-05T19:48:52.216Z,1.92
2023-03-05T19:51:23.106Z,2.40
2023-03-05T19:53:52.775Z,1.90
2023-03-05T19:56:21.808Z,2.60
2023-03-05T19:58:50.596Z,2.22
2023-03-05T20:01:22.874Z,2.80
2023-03-05T20:03:52.984Z,1.73
2023-03-05T20:06:22.527Z,1.90
2023-03-05T20:08:51.503Z,2.45
2023-03-05T20:11:22.360Z,2.13
2023-03-05T20:13:51.971Z,1.45
2023-03-05T20:16:27.314Z,2.70
2023-03-05T20:18:57.027Z,2.03
2023-03-05T20:21:28.324Z,2.25
2023-03-05T20:23:59.124Z,1.95
2023-03-05T20:26:28.994Z,2.22
2023-03-05T20:28:58.387Z,2.10
2023-03-05T20:31:29.122Z,2.10
2023-03-05T20:33:58.322Z,2.90
2023-03-05T20:36:27.009Z,2.38
2023-03-05T20:38:55.928Z,2.33
2023-03-05T20:41:25.172Z,2.00
2023-03-05T20:43:55.296Z,2.72
2023-03-05T20:46:25.987Z,1.85
2023-03-05T20:48:59.188Z,2.05
2023-03-05T20:51:30.214Z,1.58
2023-03-05T20:54:03.328Z,1.98
2023-03-05T20:56:33.569Z,2.28
2023-03-05T20:59:05.110Z,2.03
2023-03-05T21:01:35.653Z,1.83
2023-03-05T21:04:07.667Z,2.10
2023-03-05T21:06:36.481Z,1.52
2023-03-05T21:09:05.828Z,3.55
2023-03-05T21:11:35.913Z,1.80
2023-03-05T21:14:07.756Z,1.70
2023-03-05T21:16:36.439Z,1.70
2023-03-05T21:19:06.845Z,3.13
2023-03-05T21:21:35.844Z,1.98
2023-03-05T21:24:04.735Z,2.20
2023-03-05T21:26:33.606Z,3.25
2023-03-05T21:29:02.330Z,2.10
2023-03-05T21:31:31.109Z,2.60
2023-03-05T21:34:00.316Z,2.10
2023-03-05T21:36:30.213Z,3.00
2023-03-05T21:39:00.528Z,2.80
2023-03-05T21:41:30.834Z,2.10
2023-03-05T21:44:04.103Z,2.22
2023-03-05T21:46:32.940Z,2.05
2023-03-05T21:49:01.857Z,2.42
2023-03-05T21:51:38.760Z,1.92
2023-03-05T21:54:10.626Z,1.75
2023-03-05T21:56:39.689Z,2.22
2023-03-05T21:59:08.753Z,2.38
2023-03-05T22:01:37.314Z,2.50
2023-03-05T22:04:06.356Z,1.83
2023-03-05T22:06:36.448Z,2.00
2023-03-05T22:09:05.441Z,2.58
2023-03-05T22:11:34.532Z,2.60
2023-03-05T22:14:03.452Z,2.00
2023-03-05T22:16:32.854Z,2.45
2023-03-05T22:19:01.706Z,2.38
2023-03-05T22:21:31.209Z,2.05
2023-03-05T22:24:01.426Z,2.72
2023-03-05T22:26:35.914Z,1.90
2023-03-05T22:29:05.496Z,2.13
2023-03-05T22:31:34.016Z,2.28
2023-03-05T22:34:03.043Z,2.25
2023-03-05T22:36:31.751Z,2.15
2023-03-05T22:39:02.014Z,2.00
2023-03-05T22:41:30.536Z,1.65
2023-03-05T22:43:59.790Z,1.75
2023-03-05T22:46:28.787Z,2.03
2023-03-05T22:48:57.641Z,1.70
2023-03-05T22:51:26.327Z,2.97
2023-03-05T22:53:54.969Z,2.22
2023-03-05T22:56:25.141Z,1.85
2023-03-05T22:58:53.982Z,1.85
2023-03-05T23:01:23.830Z,1.88
2023-03-05T23:03:58.810Z,2.55
2023-03-05T23:06:27.577Z,2.08
2023-03-05T23:08:56.479Z,1.90
2023-03-05T23:11:26.920Z,1.88
2023-03-05T23:13:55.641Z,1.65
2023-03-05T23:16:24.210Z,1.70
2023-03-05T23:18:52.796Z,2.20
2023-03-05T23:21:21.647Z,2.10
2023-03-05T23:23:50.290Z,2.00
2023-03-05T23:26:18.886Z,2.00
2023-03-05T23:28:49.246Z,2.25
2023-03-05T23:31:19.477Z,1.58
2023-03-05T23:33:48.316Z,2.22
2023-03-05T23:36:19.979Z,1.90
2023-03-05T23:38:48.986Z,2.45
2023-03-05T23:41:17.590Z,2.05
2023-03-05T23:43:46.798Z,2.65
2023-03-05T23:46:17.079Z,2.10
2023-03-05T23:48:45.831Z,1.70
2023-03-05T23:51:14.580Z,1.90
2023-03-05T23:53:43.769Z,2.90
2023-03-05T23:56:13.356Z,2.05
2023-03-05T23:58:42.743Z,2.45
